Startpagina
METAR-TAF:

METAR-TAF

Vliegvelden :

Hamad International Airport

Doha, Qatar

breedte: 25-16-23N, lengte: 51-36-29E, hoogte: 4 m

Actueel weer

Dit bericht is 27 minuten geleden gemaakt, om 12:00 UTC
Wind 21 kt uit het noorden
Temperatuur 22°C
Vochtigheid 41%
Druk 1015 hPa
Zicht: 5000 m
Stuifstof

METAR: OTHH 261200Z 35021KT 5000 BLDU NSC 22/08 Q1015 TEMPO 4000

Tijdstip: 15:27 (12:27 UTC)

Verwachting

Dit bericht is 1 uur en het 22 minuten geleden gemaakt, om 11:05 UTC
Verwachting geldig van 26 om 12 UTC tot 27 om 18 UTC
Wind 10 kt uit het noordnoordwesten
Zicht: 8000 m
Kans 30% :
Tijdelijke
van 26 om 12 UTC tot 26 om 15 UTC
Wind 15 kt uit het noordnoordwesten met uitschieters tot 25 kt
Zicht: 5000 m
Stuifstof

TAF: OTHH 261105Z 2612/2718 33010KT 8000 NSC PROB30 TEMPO 2612/2615 33015G25KT 5000 BLDU

Waarnemingen en weersverwachtingen van meer dan 4000 vliegvelden (METAR en TAF).

De beschikbare stations zijn de gele en rode punten op de kaart.

Ga met uw muis naar het station om de naam te zien.

Klik dan om waarnemingen en weersverwachtingen te zien.

kaart wijzigen: klik op de groene knoppen met een zwart kruis om in te zoomen, op de groene knop met een streepje om uit te zoomen of op de groene pijlen voor aangrenzende kaarten.


METAR-TAF: